Tiempo atmosférico en la estación meteorológica de Villayón, Oneta, Asturias (410 m.)



Fecha
DESCASC
Temp. máxima en grados centígrados (hora)
DESCASC
Temp. mínima en grados centígrados (hora)
DESCASC
Temp. media en grados centígrados
DESCASC
Racha de viento máxima en m/sg (hora)
DESCASC
Velocidad máxima media en intervalos de 10 minutos(hora)
DESCASC
Precipitaciones diarias en mm
DESCASC
Precipitaciones de 00:00 a 06:00 en mm
DESCASC
Precipitaciones de 06:00 a 12:00 en mm
DESCASC
Precipitaciones de 12:00 a 18:00 en mm
DESCASC
Precipitaciones de 18:00 a 24:00 en mm
DESCASC
15-08-2019 21.3 (16:40) 14.1 (06:00) 17.7 13.33 (16:40) 5.28 (22:10) 0.2 0.2 0 0 0
14-08-2019 24.6 (13:50) 14.1 (00:00) 19.4 7.22 (19:00) 5.28 (19:00) 0.2 0 0 0 0.2
13-08-2019 20.5 (15:30) 12.2 (00:00) 16.3 8.33 (13:30) 5 (13:40) 0 0 0 0 0
12-08-2019 17.8 (14:40) 11.2 (00:00) 14.5 9.72 (14:50) 5.56 (16:40) 0.2 0 0.2 0 0
11-08-2019 19.7 (14:20) 12.6 (00:00) 16.2 15.83 (14:40) 10 (14:40) 4.6 0 0 2.8 1.8
10-08-2019 23.9 (13:40) 15 (00:00) 19.4 10.83 (14:40) 7.22 (14:40) 0.2 0 0 0 0.2
09-08-2019 25.5 (00:00) 17.6 (00:00) 21.6 18.61 (10:10) 8.89 (08:20) 1.6 1.6 0 0 0
08-08-2019 29.9 (13:30) 20.3 (00:00) 25.1 16.39 (22:00) 10.28 (22:00) 0.4 0.4 0 0 0
07-08-2019 25.7 (13:30) 16.7 (00:00) 21.2 6.94 (18:30) 3.33 (13:50) 1.2 0 0 0.4 0.8
06-08-2019 24.2 (13:40) 15.9 (00:00) 20.1 7.5 (15:40) 5 (15:40) 0.2 0 0 0 0.2
05-08-2019 24.8 (17:00) 15.5 (00:00) 20.1 8.33 (14:00) 5.83 (14:30) 0 0 0 0 0
04-08-2019 21.7 (14:50) 16.5 (00:00) 19.1 8.33 (16:00) 5.28 (15:50) 0 0 0 0 0
03-08-2019 22.7 (14:30) 16 (00:00) 19.4 8.06 (16:40) 5 (16:40) 0 0 0 0 0
02-08-2019 24.5 (16:50) 14.3 (00:00) 19.4 6.94 (15:10) 3.61 (14:10) 0 0 0 0 0
01-08-2019 21.2 (13:30) 15.4 (00:00) 18.3 10.83 (15:50) 6.67 (15:50) 0 0 0 0 0
31-07-2019 20.1 (13:00) 11.5 (00:00) 15.8 9.17 (15:20) 6.11 (19:20) 0 0 0 0 0
30-07-2019 19.2 (12:30) 13.1 (00:00) 16.2 9.72 (16:10) 7.22 (17:40) 0 0 0 0 0
29-07-2019 22.1 (16:20) 14.2 (00:00) 18.2 12.5 (12:40) 6.67 (17:50) 0 0 0 0 0
28-07-2019 23.1 (18:30) 11.5 (00:00) 17.3 5.28 (14:20) 3.33 (16:20) 0 0 0 0 0
27-07-2019 19.1 (17:30) 12.4 (00:00) 15.8 8.89 (16:40) 5.83 (16:00) 9.4 0.4 9 0 0
26-07-2019 18.4 (11:40) 13.9 (00:00) 16.1 8.06 (12:30) 5.83 (12:40) 0.8 0 0 0 0.8
25-07-2019 27.2 (12:00) 16.4 (00:00) 21.8 12.78 (14:00) 8.61 (13:50) 4.4 0 0 0 4.4
24-07-2019 26.4 (15:40) 16.1 (00:00) 21.3 6.39 (15:00) 3.89 (18:10) 0 0 0 0 0
23-07-2019 26.2 (11:20) 17.9 (00:00) 22.1 8.06 (16:00) 5.28 (15:50) 0 0 0 0 0
22-07-2019 25.1 (16:00) 17.5 (00:00) 21.3 9.44 (22:50) 6.39 (08:20) 0 0 0 0 0
21-07-2019 22 (14:10) 15.7 (00:00) 18.8 8.33 (17:50) 5.28 (17:50) 0 0 0 0 0
20-07-2019 22.4 (12:10) 15.2 (00:00) 18.8 9.72 (13:20) 6.67 (13:20) 0 0 0 0 0
19-07-2019 23 (18:40) 14.7 (00:00) 18.8 6.39 (14:20) 4.44 (15:00) 0 0 0 0 0

Gráficas

Temp. máximas Temp. mínimas Temp. medias Precipitaciones Rachas de viento máximas Velocidades máximas media en intervalos de 10 minutos

Datos horarios

Fecha y hora oficial Temperatura (ºC) Velocidad del viento (km/h) Dirección del viento Racha (km/h) Dirección de racha Precipitación (mm) Presión (hPa) Tendencia (hPa) Humedad (%)
2019-08-17 23:00:00 22 6 Oeste 23 Sur 0 -- -- 77
2019-08-17 22:00:00 20.9 5 Sudeste 14 Sudoeste 0 -- -- 86
2019-08-17 21:00:00 22.9 0 Calma 15 Oeste 0 -- -- 77
2019-08-17 20:00:00 24.7 9 Noroeste 23 Noroeste 0 -- -- 71
2019-08-17 19:00:00 25.4 16 Noroeste 24 Noroeste 0 -- -- 68
2019-08-17 18:00:00 27 17 Noroeste 32 Noroeste 0 -- -- 61
2019-08-17 17:00:00 29.1 8 Nordeste 23 Noroeste 0 -- -- 56
2019-08-17 16:00:00 29.3 9 Noroeste 26 Norte 0 -- -- 55
2019-08-17 15:00:00 28.3 14 Noroeste 28 Sur 0 -- -- 59
2019-08-17 14:00:00 27.6 12 Sur 24 Sudoeste 0 -- -- 58
2019-08-17 13:00:00 26.4 6 Noroeste 27 Sur 0 -- -- 61
2019-08-17 12:00:00 24.2 8 Noroeste 32 Sudoeste 0 -- -- 67
2019-08-17 11:00:00 21.9 9 Oeste 24 Sudoeste 0 -- -- 74
2019-08-17 10:00:00 21.2 10 Sur 25 Sur 0 -- -- 71
2019-08-17 09:00:00 19.7 4 Sudeste 16 Sur 0 -- -- 77
2019-08-17 08:00:00 18.4 6 Oeste 14 Norte 0 -- -- 79
2019-08-17 07:00:00 18.9 3 Nordeste 15 Oeste 0 -- -- 77
2019-08-17 06:00:00 19.2 4 Oeste 15 Sur 0 -- -- 76
2019-08-17 05:00:00 19.1 4 Sudeste 18 Noroeste 0 -- -- 79
2019-08-17 04:00:00 19.7 5 Sudoeste 14 Noroeste 0 -- -- 75
2019-08-17 03:00:00 19.6 5 Oeste 17 Sur 0 -- -- 77
2019-08-17 02:00:00 19.5 8 Sudoeste 18 Sur 0 -- -- 83
2019-08-17 01:00:00 19.3 7 Sur 20 Sudoeste 0 -- -- 86
2019-08-17 00:00:00 19.7 5 Norte 11 Este 0 -- -- 85
2019-08-16 23:00:00 18.2 2 Sur 9 Sudoeste 0 -- -- 89
2019-08-16 22:00:00 17.9 6 Sudeste 10 Sudeste 0 -- -- 90
2019-08-16 21:00:00 19.6 4 Sur 10 Noroeste 0 -- -- 81
2019-08-16 20:00:00 20 7 Noroeste 18 Noroeste 0 -- -- 80
2019-08-16 19:00:00 21 12 Noroeste 20 Noroeste 0 -- -- 79
2019-08-16 18:00:00 21.2 12 Noroeste 20 Noroeste 0 -- -- 79
2019-08-16 17:00:00 21.5 9 Noroeste 26 Noroeste 0 -- -- 78
2019-08-16 16:00:00 21.1 17 Noroeste 29 Noroeste 0 -- -- 79
2019-08-16 15:00:00 20.5 18 Noroeste 28 Noroeste 0 -- -- 79
2019-08-16 14:00:00 22.2 11 Noroeste 19 Noroeste 0 -- -- 74
2019-08-16 13:00:00 21.4 9 Noroeste 19 Noroeste 0 -- -- 73
2019-08-16 12:00:00 21.4 3 Noroeste 11 Noroeste 0 -- -- 70
2019-08-16 11:00:00 19.2 5 Noroeste 14 Sur 0 -- -- 77
2019-08-16 10:00:00 18.1 5 Sudeste 13 Sur 0 -- -- 83
2019-08-16 09:00:00 16.5 5 Sur 8 Sur 0 -- -- 88
2019-08-16 08:00:00 14.8 3 Sudeste 8 Este 0 -- -- 93
2019-08-16 07:00:00 14.4 5 Sudeste 17 Sudoeste 0 -- -- 95
2019-08-16 06:00:00 14.3 7 Este 14 Sudoeste 0 -- -- 95
2019-08-16 05:00:00 14.8 2 Nordeste 6 Este 0 -- -- 94
2019-08-16 04:00:00 14 3 Oeste 6 Noroeste 0 -- -- 96
2019-08-16 03:00:00 14.4 2 Sur 6 Sudeste 0 -- -- 95
2019-08-16 02:00:00 14.5 2 Este 7 Este 0 -- -- 93
2019-08-16 01:00:00 14.7 0 Calma 8 Este 0 -- -- 93
2019-08-16 00:00:00 14.3 0 Calma 6 Este 0 -- -- 93
2019-08-15 23:00:00 14.9 4 Oeste 27 Este 0 -- -- 89
2019-08-15 22:00:00 15.2 19 Este 29 Este 0 -- -- 86
2019-08-15 21:00:00 16.4 14 Sudeste 21 Sudeste 0 -- -- 85
2019-08-15 20:00:00 19.7 4 Sudoeste 13 Sudoeste 0 -- -- 73
2019-08-15 19:00:00 20.4 6 Noroeste 20 Este 0 -- -- 71
2019-08-15 18:00:00 21.3 8 Oeste 24 Noroeste 0 -- -- 69
2019-08-15 17:00:00 20.8 14 Noroeste 48 Sur 0 -- -- 70
2019-08-15 16:00:00 19.8 4 Norte 25 Noroeste 0 -- -- 76
2019-08-15 15:00:00 18.6 12 Noroeste 23 Noroeste 0 -- -- 81
2019-08-15 14:00:00 17.8 9 Noroeste 15 Noroeste 0 -- -- 84
2019-08-15 13:00:00 17.4 13 Noroeste 17 Noroeste 0 -- -- 87
2019-08-15 12:00:00 17.2 9 Noroeste 13 Noroeste 0 -- -- 90
2019-08-15 11:00:00 16.1 5 Noroeste 10 Noroeste 0 -- -- 94
2019-08-15 10:00:00 15.5 6 Noroeste 10 Noroeste 0 -- -- 98
2019-08-15 09:00:00 14.9 2 Este 4 Este 0 -- -- 100
2019-08-15 08:00:00 14.3 3 Sudeste 7 Noroeste 0 -- -- 100
2019-08-15 07:00:00 14.1 0 Calma 4 Oeste 0 -- -- 100
2019-08-15 06:00:00 14.1 0 Calma 5 Noroeste 0 -- -- 100
2019-08-15 05:00:00 14.2 4 Noroeste 15 Noroeste 0.2 -- -- 100
2019-08-15 04:00:00 14.4 10 Noroeste 16 Noroeste 0 -- -- 100
2019-08-15 03:00:00 14.6 8 Noroeste 16 Norte 0 -- -- 100
2019-08-15 02:00:00 14.9 14 Noroeste 26 Noroeste 0 -- -- 100
2019-08-15 01:00:00 15.8 9 Noroeste 18 Noroeste 0 -- -- 100
2019-08-15 00:00:00 16.2 14 Noroeste 25 Noroeste 0.2 -- -- 100
2019-08-14 23:00:00 17 8 Noroeste 16 Noroeste 0 -- -- 100
2019-08-14 22:00:00 17.2 13 Noroeste 25 Noroeste 0 -- -- 100
2019-08-14 21:00:00 18 16 Noroeste 25 Noroeste 0 -- -- 100
2019-08-14 20:00:00 18.7 16 Noroeste 24 Noroeste 0 -- -- 97
2019-08-14 19:00:00 20 19 Noroeste 26 Noroeste 0 -- -- 90
2019-08-14 18:00:00 22.4 11 Noroeste 20 Noroeste 0 -- -- 80
2019-08-14 17:00:00 21.4 6 Noroeste 19 Noroeste 0 -- -- 80
2019-08-14 16:00:00 21.5 9 Noroeste 22 Noroeste 0 -- -- 78
2019-08-14 15:00:00 23.4 10 Noroeste 17 Noroeste 0 -- -- 68
2019-08-14 14:00:00 24.3 7 Noroeste 19 Sudoeste 0 -- -- 62
2019-08-14 13:00:00 23.8 8 Sudoeste 23 Sudoeste 0 -- -- 59
2019-08-14 12:00:00 20.9 4 Noroeste 22 Sur 0 -- -- 64
2019-08-14 11:00:00 19.3 5 Noroeste 16 Sudoeste 0 -- -- 61
2019-08-14 10:00:00 18 4 Norte 15 Sudoeste 0 -- -- 68
2019-08-14 09:00:00 16.6 9 Sur 15 Sur 0 -- -- 75
2019-08-14 08:00:00 15.2 4 Oeste 12 Sur 0 -- -- 80
2019-08-14 07:00:00 14.9 8 Sudoeste 12 Sudoeste 0 -- -- 85
2019-08-14 06:00:00 14.9 4 Oeste 18 Sudoeste 0 -- -- 88
2019-08-14 05:00:00 14.6 9 Sur 14 Sudoeste 0 -- -- 93
2019-08-14 04:00:00 14.6 5 Este 12 Este 0 -- -- 93
2019-08-14 03:00:00 14.9 7 Sur 11 Sur 0 -- -- 92
2019-08-14 02:00:00 14.8 5 Sudeste 8 Este 0 -- -- 93
2019-08-14 01:00:00 14.8 4 Noroeste 9 Este 0 -- -- 95
2019-08-14 00:00:00 14.8 4 Sudeste 6 Sudeste -- -- -- 95
2019-08-13 23:00:00 14.8 0 Calma 7 Oeste 0 -- -- 95
2019-08-13 22:00:00 15.5 0 Calma 9 Oeste 0 -- -- 91
2019-08-13 21:00:00 17.8 3 Oeste 18 Este 0 -- -- 81
2019-08-13 20:00:00 17.4 14 Este 23 Este 0 -- -- 82
2019-08-13 19:00:00 18.4 7 Sudeste 15 Noroeste 0 -- -- 77
2019-08-13 18:00:00 19 7 Nordeste 15 Este 0 -- -- 74
2019-08-13 17:00:00 19.3 12 Este 21 Este 0 -- -- 74
2019-08-13 16:00:00 19.9 6 Este 17 Este 0 -- -- 71
2019-08-13 15:00:00 19.4 10 Este 26 Noroeste 0 -- -- 70
2019-08-13 14:00:00 18.2 8 Nordeste 30 Noroeste 0 -- -- 75
2019-08-13 13:00:00 18.5 12 Noroeste 21 Noroeste 0 -- -- 76
2019-08-13 12:00:00 17.2 13 Noroeste 18 Noroeste 0 -- -- 81
2019-08-13 11:00:00 16 4 Noroeste 11 Sudeste 0 -- -- 77
2019-08-13 10:00:00 14.1 2 Norte 6 Sur 0 -- -- 81
2019-08-13 09:00:00 14.4 3 Este 8 Este 0 -- -- 83
2019-08-13 08:00:00 12.4 4 Este 8 Nordeste 0 -- -- 85
2019-08-13 07:00:00 12.4 2 Este 8 Este 0 -- -- 87
2019-08-13 06:00:00 13 3 Este 7 Este 0 -- -- 83
2019-08-13 05:00:00 12.6 0 Calma 8 Este 0 -- -- 88
2019-08-13 04:00:00 12.8 4 Nordeste 15 Nordeste 0 -- -- 88
2019-08-13 03:00:00 12.9 7 Este 19 Este 0 -- -- 90
2019-08-13 02:00:00 12.9 6 Sudeste 15 Sudeste 0 -- -- 91
2019-08-13 01:00:00 13 6 Este 12 Este 0 -- -- 88
2019-08-13 00:00:00 13.8 7 Este 10 Este 0 -- -- 86
2019-08-12 23:00:00 13.8 4 Nordeste 8 Nordeste 0 -- -- 86
2019-08-12 22:00:00 13.9 6 Nordeste 14 Noroeste 0 -- -- 85
2019-08-12 21:00:00 14.9 10 Noroeste 22 Noroeste 0 -- -- 81
2019-08-12 20:00:00 16.4 13 Norte 24 Noroeste 0 -- -- 72
2019-08-12 19:00:00 15.7 12 Noroeste 22 Noroeste 0 -- -- 77
2019-08-12 18:00:00 15.5 15 Noroeste 25 Noroeste 0 -- -- 79
2019-08-12 17:00:00 16.4 19 Noroeste 30 Noroeste 0 -- -- 77
2019-08-12 16:00:00 16.4 16 Noroeste 27 Noroeste 0 -- -- 73
2019-08-12 15:00:00 16.4 11 Norte 35 Noroeste 0 -- -- 76
2019-08-12 14:00:00 15.6 12 Noroeste 22 Noroeste 0 -- -- 78
2019-08-12 13:00:00 16.2 6 Noroeste 13 Sur 0 -- -- 75
2019-08-12 12:00:00 15.3 5 Sur 9 Sudeste 0.2 -- -- 87
2019-08-12 11:00:00 14.8 3 Oeste 11 Sudoeste 0 -- -- 85
2019-08-12 10:00:00 13.9 4 Sudoeste 10 Sur 0 -- -- 86
2019-08-12 09:00:00 11.9 5 Sudeste 13 Sur 0 -- -- 92
2019-08-12 08:00:00 11.4 3 Oeste 10 Sur 0 -- -- 92
2019-08-12 07:00:00 11.2 5 Sur 12 Sur 0 -- -- 94
2019-08-12 06:00:00 11.7 5 Oeste 13 Sur 0 -- -- 92
2019-08-12 05:00:00 11.6 6 Sur 13 Sudoeste 0 -- -- 92
2019-08-12 04:00:00 11.8 6 Sudoeste 12 Sudoeste 0 -- -- 92
2019-08-12 03:00:00 11.9 5 Sudoeste 14 Sudoeste 0 -- -- 94
2019-08-12 02:00:00 12.2 6 Sudoeste 12 Sudoeste 0 -- -- 96
2019-08-12 01:00:00 12.5 8 Sudoeste 14 Sudoeste 0 -- -- 96
2019-08-12 00:00:00 12.6 4 Sur 8 Sudoeste 0 -- -- 95
2019-08-11 23:00:00 13.1 4 Sudoeste 12 Sudoeste 0 -- -- 95
2019-08-11 22:00:00 13.9 2 Oeste 7 Sudeste 0 -- -- 90
2019-08-11 21:00:00 14.3 0 Calma 10 Noroeste 0.6 -- -- 92
2019-08-11 20:00:00 14.7 0 Calma 9 Sudoeste 1.2 -- -- 91
2019-08-11 19:00:00 16.4 5 Sudoeste 12 Noroeste 0 -- -- 79
2019-08-11 18:00:00 16.4 2 Oeste 10 Sudeste 0 -- -- 81
2019-08-11 17:00:00 14 4 Este 19 Sudoeste 2.6 -- -- 88
2019-08-11 16:00:00 15.1 10 Noroeste 25 Noroeste 0 -- -- 80
2019-08-11 15:00:00 14.5 23 Noroeste 57 Oeste 0.2 -- -- 72
2019-08-11 14:00:00 19 10 Noroeste 21 Noroeste 0 -- -- 60
2019-08-11 13:00:00 19.1 11 Noroeste 16 Noroeste 0 -- -- 63
2019-08-11 12:00:00 17.9 9 Noroeste 16 Noroeste 0 -- -- 69
2019-08-11 11:00:00 17.4 8 Noroeste 15 Sur 0 -- -- 71
2019-08-11 10:00:00 17.2 6 Sudoeste 12 Noroeste 0 -- -- 77
2019-08-11 09:00:00 14.8 0 Calma 9 Noroeste 0 -- -- 90
2019-08-11 08:00:00 13.6 5 Oeste 7 Oeste 0 -- -- 93
2019-08-11 07:00:00 14 3 Sudoeste 5 Oeste 0 -- -- 91
2019-08-11 06:00:00 14.4 3 Oeste 4 Este 0 -- -- 88
2019-08-11 05:00:00 14.2 4 Sudeste 6 Este 0 -- -- 88
2019-08-11 04:00:00 14.4 0 Calma 9 Sudoeste 0 -- -- 89
2019-08-11 03:00:00 14.7 2 Sudeste 4 Sudeste 0 -- -- 86
2019-08-11 02:00:00 14.8 0 Calma 5 Este 0 -- -- 85
2019-08-11 01:00:00 14.8 0 Calma 9 Norte 0 -- -- 91
2019-08-11 00:00:00 15 4 Nordeste 14 Noroeste 0.2 -- -- 92
2019-08-10 23:00:00 15.6 10 Noroeste 14 Noroeste 0 -- -- 90
2019-08-10 22:00:00 15.8 3 Nordeste 9 Norte 0 -- -- 82
2019-08-10 21:00:00 16.1 5 Noroeste 20 Noroeste 0 -- -- 84
2019-08-10 20:00:00 16.4 14 Noroeste 23 Noroeste 0 -- -- 86
2019-08-10 19:00:00 16.9 18 Noroeste 28 Noroeste 0 -- -- 80
2019-08-10 18:00:00 17 17 Noroeste 32 Noroeste 0 -- -- 82
2019-08-10 17:00:00 18.1 18 Noroeste 32 Noroeste 0 -- -- 74
2019-08-10 16:00:00 18.6 22 Noroeste 34 Noroeste 0 -- -- 77
2019-08-10 15:00:00 20 17 Noroeste 39 Noroeste 0 -- -- 68
2019-08-10 14:00:00 21.4 15 Noroeste 25 Sur 0 -- -- 54
2019-08-10 13:00:00 20.3 14 Noroeste 23 Sur 0 -- -- 55
2019-08-10 12:00:00 22.3 6 Sudoeste 22 Sudoeste 0 -- -- 53
2019-08-10 11:00:00 21 10 Sudoeste 30 Sur 0 -- -- 60
2019-08-10 10:00:00 18.9 10 Sudoeste 27 Sur 0 -- -- 66
2019-08-10 09:00:00 17 12 Sudoeste 23 Sudoeste 0 -- -- 74
2019-08-10 08:00:00 15.6 6 Sudoeste 27 Sudoeste 0 -- -- 78
2019-08-10 07:00:00 15.6 10 Sudoeste 26 Sudoeste 0 -- -- 77
2019-08-10 06:00:00 16.1 11 Oeste 36 Sur 0 -- -- 74
2019-08-10 05:00:00 16.3 8 Oeste 24 Sudoeste 0 -- -- 73
2019-08-10 04:00:00 16.4 5 Noroeste 22 Noroeste 0 -- -- 73
2019-08-10 03:00:00 16.6 8 Noroeste 25 Sudoeste 0 -- -- 73
2019-08-10 02:00:00 17.2 9 Oeste 25 Oeste 0 -- -- 71
2019-08-10 01:00:00 17.4 8 Noroeste 23 Sudoeste 0 -- -- 71
2019-08-10 00:00:00 17.7 6 Oeste 25 Oeste 0 -- -- 68
2019-08-09 23:00:00 18.5 8 Oeste 26 Oeste 0 -- -- 65
2019-08-09 22:00:00 19.3 10 Oeste 42 Sudoeste 0 -- -- 61
2019-08-09 21:00:00 20.7 16 Sudoeste 40 Sudoeste 0 -- -- 56
2019-08-09 20:00:00 21.4 13 Sudoeste 41 Sudoeste 0 -- -- 56
2019-08-09 19:00:00 21.8 16 Oeste 43 Sur 0 -- -- 52
2019-08-09 18:00:00 22.5 13 Oeste 52 Sudoeste 0 -- -- 47
2019-08-09 17:00:00 23.4 18 Oeste 54 Sur 0 -- -- 45
2019-08-09 16:00:00 24 19 Oeste 63 Sudoeste 0 -- -- 52
2019-08-09 15:00:00 23.6 25 Sudoeste 54 Sudoeste 0 -- -- 52
2019-08-09 14:00:00 23.9 25 Sudoeste 66 Sur 0 -- -- 50
2019-08-09 13:00:00 23 17 Oeste 55 Sur 0 -- -- 55
2019-08-09 12:00:00 21.2 17 Sudoeste 62 Sudoeste 0 -- -- 58
2019-08-09 11:00:00 20.1 26 Sudoeste 67 Sudoeste 0 -- -- 61
2019-08-09 10:00:00 18.8 28 Sur 60 Sur 0 -- -- 66
2019-08-09 09:00:00 18.1 30 Sur 63 Sur 0 -- -- 68
2019-08-09 08:00:00 17.8 30 Sur 64 Sur 0 -- -- 70
2019-08-09 07:00:00 17.8 27 Sur 58 Sur 0 -- -- 73
2019-08-09 06:00:00 18.8 14 Sudoeste 40 Sudoeste 0 -- -- 75
2019-08-09 05:00:00 19.7 12 Sudoeste 26 Sur 0.2 -- -- 83
2019-08-09 04:00:00 20.2 9 Sur 23 Noroeste 1.4 -- -- 94
2019-08-09 03:00:00 23.1 11 Sudoeste 49 Sudoeste 0 -- -- 73
2019-08-09 02:00:00 24.5 15 Sur 63 Sudoeste 0 -- -- 63
2019-08-09 01:00:00 25 21 Sur 44 Sur 0 -- -- 63
2019-08-09 00:00:00 25.5 28 Sur 58 Sur 0 -- -- 61
2019-08-08 23:00:00 25.5 20 Sudoeste 55 Sur 0 -- -- 60
2019-08-08 22:00:00 25.6 37 Sur 59 Sur 0 -- -- 58
2019-08-08 21:00:00 25.2 35 Sur 51 Sur 0 -- -- 64
2019-08-08 20:00:00 26.6 12 Oeste 47 Sur 0 -- -- 64
2019-08-08 19:00:00 27.6 14 Oeste 37 Sudoeste 0 -- -- 63
2019-08-08 18:00:00 27.6 11 Sudoeste 54 Sur 0 -- -- 64
2019-08-08 17:00:00 29.4 17 Sudoeste 45 Sudoeste 0 -- -- 58
2019-08-08 16:00:00 27.9 12 Oeste 48 Sudoeste 0 -- -- 60
2019-08-08 15:00:00 29.3 11 Sudoeste 44 Sudoeste 0 -- -- 58
2019-08-08 14:00:00 29.1 11 Oeste 33 Sudoeste 0 -- -- 56
2019-08-08 13:00:00 29.1 21 Sudoeste 42 Sur 0 -- -- 54
2019-08-08 12:00:00 27.5 17 Sudoeste 42 Sudoeste 0 -- -- 59
2019-08-08 11:00:00 26 13 Oeste 40 Sur 0 -- -- 63
2019-08-08 10:00:00 24.9 14 Sudoeste 46 Sur 0 -- -- 64
2019-08-08 09:00:00 23.2 8 Sur 20 Sur 0 -- -- 73
2019-08-08 08:00:00 22.5 7 Norte 17 Sudoeste 0 -- -- 73
2019-08-08 07:00:00 21.9 4 Norte 19 Sudeste 0 -- -- 74
2019-08-08 06:00:00 21.5 8 Noroeste 12 Noroeste 0 -- -- 76
2019-08-08 05:00:00 21.3 7 Sudeste 21 Sur 0 -- -- 77
2019-08-08 04:00:00 20.6 7 Sur 21 Sudoeste 0 -- -- 80
2019-08-08 03:00:00 20.7 8 Sudeste 14 Este 0 -- -- 80
2019-08-08 02:00:00 20.3 4 Sudeste 10 Sur 0 -- -- 82
2019-08-08 01:00:00 20.6 6 Sudoeste 16 Sudoeste 0.4 -- -- 80
2019-08-08 00:00:00 21.1 7 Sur 14 Sur 0 -- -- 77
2019-08-07 23:00:00 21.1 4 Sudeste 14 Sudoeste 0 -- -- 79
2019-08-07 22:00:00 20.7 3 Norte 21 Sudoeste 0 -- -- 82
2019-08-07 21:00:00 20.5 3 Noroeste 8 Norte 0 -- -- 86
2019-08-07 20:00:00 20.6 2 Nordeste 12 Sudeste 0 -- -- 86
2019-08-07 19:00:00 20.2 4 Este 25 Oeste 0.8 -- -- 88
2019-08-07 18:00:00 22 8 Sudoeste 23 Sudoeste 0 -- -- 76
2019-08-07 17:00:00 21.9 9 Sudoeste 23 Sudoeste 0 -- -- 79
2019-08-07 16:00:00 20.4 5 Este 22 Sudoeste 0.4 -- -- 87
2019-08-07 15:00:00 22.7 8 Noroeste 14 Oeste 0 -- -- 75
2019-08-07 14:00:00 24.3 10 Noroeste 24 Noroeste 0 -- -- 61
2019-08-07 13:00:00 23.5 8 Noroeste 16 Oeste 0 -- -- 72
2019-08-07 12:00:00 22.7 5 Noroeste 10 Sudeste 0 -- -- 71
2019-08-07 11:00:00 22.2 5 Sudeste 13 Sudoeste 0 -- -- 73
2019-08-07 10:00:00 20.1 5 Este 14 Sudoeste 0 -- -- 82
2019-08-07 09:00:00 18.2 0 Calma 13 Sudoeste 0 -- -- 92
2019-08-07 08:00:00 17.7 4 Este 9 Este 0 -- -- 89
2019-08-07 07:00:00 17 4 Sudoeste 7 Sur 0 -- -- 96
2019-08-07 06:00:00 17 2 Noroeste 8 Sudeste 0 -- -- 100
2019-08-07 05:00:00 16.7 4 Sudeste 11 Oeste 0 -- -- 100
2019-08-07 04:00:00 16.7 3 Sur 9 Sudeste 0 -- -- 100
2019-08-07 03:00:00 17.1 4 Sudeste 5 Sudeste 0 -- -- 100
2019-08-07 02:00:00 17.2 0 Calma 5 Oeste 0 -- -- 100
2019-08-07 01:00:00 17.3 4 Noroeste 8 Noroeste 0 -- -- 100
2019-08-07 00:00:00 17.5 4 Noroeste 13 Norte 0 -- -- 100
2019-08-06 23:00:00 17.8 9 Noroeste 13 Noroeste 0 -- -- 100
2019-08-06 22:00:00 17.9 4 Oeste 15 Noroeste 0 -- -- 100
2019-08-06 21:00:00 18.5 4 Sur 7 Sudeste 0 -- -- 100
2019-08-06 20:00:00 18.8 4 Norte 17 Nordeste 0 -- -- 98
2019-08-06 19:00:00 18.9 8 Sudeste 10 Sudeste 0.2 -- -- 97
2019-08-06 18:00:00 19.4 7 Noroeste 15 Noroeste 0 -- -- 94
2019-08-06 17:00:00 19.7 11 Noroeste 19 Noroeste 0 -- -- 89
2019-08-06 16:00:00 20.9 12 Noroeste 27 Oeste 0 -- -- 83
2019-08-06 15:00:00 22.7 8 Noroeste 20 Noroeste 0 -- -- 77
2019-08-06 14:00:00 23.2 10 Noroeste 22 Noroeste 0 -- -- 76
2019-08-06 13:00:00 22.8 12 Noroeste 20 Sudoeste 0 -- -- 76
2019-08-06 12:00:00 23.9 8 Noroeste 22 Sur 0 -- -- 67
2019-08-06 11:00:00 20.9 9 Noroeste 15 Norte 0 -- -- 80
2019-08-06 10:00:00 19.6 4 Sudoeste 12 Sur 0 -- -- 86
2019-08-06 09:00:00 18.4 0 Calma 7 Sudeste 0 -- -- 89
2019-08-06 08:00:00 17 4 Sudeste 8 Este 0 -- -- 92
2019-08-06 07:00:00 17.1 5 Este 7 Este 0 -- -- 91
2019-08-06 06:00:00 16.5 3 Oeste 7 Noroeste 0 -- -- 94
2019-08-06 05:00:00 16.9 4 Sur 7 Este 0 -- -- 91
2019-08-06 04:00:00 17 4 Sudeste 7 Este 0 -- -- 91
2019-08-06 03:00:00 16.6 0 Calma 7 Este 0 -- -- 92
2019-08-06 02:00:00 16.4 4 Este 8 Este 0 -- -- 92
2019-08-06 01:00:00 16.1 4 Este 11 Este 0 -- -- 94
2019-08-06 00:00:00 16.4 7 Sur 25 Este 0 -- -- 92
2019-08-05 23:00:00 16.9 7 Este 13 Sudeste 0 -- -- 90
2019-08-05 22:00:00 17.2 6 Sur 17 Noroeste 0 -- -- 88
2019-08-05 21:00:00 19.9 5 Noroeste 13 Oeste 0 -- -- 77
2019-08-05 20:00:00 20.5 9 Noroeste 22 Noroeste 0 -- -- 76
2019-08-05 19:00:00 22.6 4 Norte 27 Noroeste 0 -- -- 69
2019-08-05 18:00:00 22.2 20 Noroeste 27 Noroeste 0 -- -- 68
2019-08-05 17:00:00 24.8 12 Noroeste 23 Noroeste 0 -- -- 62
2019-08-05 16:00:00 23.7 17 Noroeste 27 Noroeste 0 -- -- 66
2019-08-05 15:00:00 22.5 19 Noroeste 28 Noroeste 0 -- -- 69
2019-08-05 14:00:00 22.3 20 Noroeste 30 Noroeste 0 -- -- 67
2019-08-05 13:00:00 23.2 15 Noroeste 22 Noroeste 0 -- -- 71
2019-08-05 12:00:00 22.4 5 Noroeste 10 Oeste 0 -- -- 64
2019-08-05 11:00:00 21.8 5 Sudoeste 14 Sudeste 0 -- -- 72
2019-08-05 10:00:00 19.6 7 Sur 12 Sudeste 0 -- -- 83
2019-08-05 09:00:00 17.2 2 Noroeste 8 Sur 0 -- -- 93
2019-08-05 08:00:00 15.6 3 Este 6 Este 0 -- -- 100
2019-08-05 07:00:00 16 0 Calma 8 Oeste 0 -- -- 100
2019-08-05 06:00:00 16 4 Oeste 12 Oeste 0 -- -- 100
2019-08-05 05:00:00 16 0 Calma 12 Este 0 -- -- 100
2019-08-05 04:00:00 16.2 3 Este 6 Este 0 -- -- 100
2019-08-05 03:00:00 16.8 0 Calma 8 Este 0 -- -- 97
2019-08-05 02:00:00 16.5 7 Este 10 Este 0 -- -- 100
2019-08-05 01:00:00 16.6 9 Sudeste 12 Sudeste 0 -- -- 100
2019-08-05 00:00:00 16.5 2 Sudeste 4 Sudeste 0 -- -- 100
2019-08-04 23:00:00 16.5 0 Calma 6 Oeste 0 -- -- 100
2019-08-04 22:00:00 16.6 3 Oeste 12 Noroeste 0 -- -- 100
2019-08-04 21:00:00 16.8 9 Noroeste 18 Noroeste 0 -- -- 100
2019-08-04 20:00:00 17.3 12 Noroeste 17 Noroeste 0 -- -- 97
2019-08-04 19:00:00 18.4 8 Noroeste 17 Noroeste 0 -- -- 92
2019-08-04 18:00:00 18.4 12 Noroeste 22 Noroeste 0 -- -- 89
2019-08-04 17:00:00 18.6 19 Noroeste 28 Noroeste 0 -- -- 91
2019-08-04 16:00:00 20.1 19 Noroeste 30 Noroeste 0 -- -- 85
2019-08-04 15:00:00 21.4 16 Noroeste 24 Noroeste 0 -- -- 81
2019-08-04 14:00:00 19.7 6 Noroeste 14 Sur 0 -- -- 87
2019-08-04 13:00:00 18.1 4 Noroeste 8 Noroeste 0 -- -- 95
2019-08-04 12:00:00 17.4 4 Oeste 8 Noroeste 0 -- -- 98
2019-08-04 11:00:00 16.9 6 Noroeste 12 Noroeste 0 -- -- 99
2019-08-04 10:00:00 17 5 Noroeste 8 Noroeste 0 -- -- 100
2019-08-04 09:00:00 16.8 0 Calma 5 Nordeste 0 -- -- 100
2019-08-04 08:00:00 16.9 0 Calma 0 Calma 0 -- -- 97
2019-08-04 07:00:00 17.1 0 Calma 0 Calma 0 -- -- 95
2019-08-04 06:00:00 17.1 0 Calma 0 Calma 0 -- -- 96
2019-08-04 05:00:00 17.1 0 Calma 0 Calma 0 -- -- 98
2019-08-04 04:00:00 16.9 0 Calma 4 Noroeste 0 -- -- 98
2019-08-04 03:00:00 16.7 0 Calma 7 Oeste 0 -- -- 99
2019-08-04 02:00:00 16.6 2 Oeste 9 Oeste 0 -- -- 99
2019-08-04 01:00:00 16.9 7 Noroeste 8 Oeste 0 -- -- 98
2019-08-04 00:00:00 17.4 4 Norte 6 Noroeste 0 -- -- 97
2019-08-03 23:00:00 17.8 0 Calma 10 Noroeste 0 -- -- 96
2019-08-03 22:00:00 18.1 7 Noroeste 9 Noroeste 0 -- -- 95
2019-08-03 21:00:00 18.7 6 Noroeste 8 Noroeste 0 -- -- 92
2019-08-03 20:00:00 19.5 5 Noroeste 14 Noroeste 0 -- -- 87
2019-08-03 19:00:00 19.9 7 Noroeste 18 Noroeste 0 -- -- 86
2019-08-03 18:00:00 20.3 13 Noroeste 22 Noroeste 0 -- -- 83
2019-08-03 17:00:00 21.3 16 Noroeste 29 Noroeste 0 -- -- 82
2019-08-03 16:00:00 22.1 17 Noroeste 24 Noroeste 0 -- -- 77
2019-08-03 15:00:00 22.4 15 Noroeste 22 Noroeste 0 -- -- 80
2019-08-03 14:00:00 22.6 11 Noroeste 20 Noroeste 0 -- -- 80
2019-08-03 13:00:00 21.9 8 Noroeste 18 Noroeste 0 -- -- 80
2019-08-03 12:00:00 21 3 Noroeste 8 Noroeste 0 -- -- 82
2019-08-03 11:00:00 18.2 2 Oeste 10 Oeste 0 -- -- 97
2019-08-03 10:00:00 16.5 0 Calma 8 Noroeste 0 -- -- 100
2019-08-03 09:00:00 16.1 3 Noroeste 9 Sudoeste 0 -- -- 100
2019-08-03 08:00:00 16.1 4 Sur 9 Sudoeste 0 -- -- 100
2019-08-03 07:00:00 16.2 5 Sur 6 Sur 0 -- -- 100
2019-08-03 06:00:00 16.4 2 Sur 6 Oeste 0 -- -- 100
2019-08-03 05:00:00 16.7 4 Este 5 Este 0 -- -- 100
2019-08-03 04:00:00 17 3 Este 5 Este 0 -- -- 99
2019-08-03 03:00:00 17.1 2 Este 3 Este 0 -- -- 99
2019-08-03 02:00:00 17.1 2 Sudeste 5 Este 0 -- -- 99
2019-08-03 01:00:00 17.2 3 Este 5 Sudeste 0 -- -- 100
2019-08-03 00:00:00 16.9 2 Sur 6 Sudeste 0 -- -- 100
2019-08-02 23:00:00 17.2 2 Sudeste 6 Sur 0 -- -- 100
2019-08-02 22:00:00 17.7 0 Calma 9 Noroeste 0 -- -- 98
2019-08-02 21:00:00 19.8 7 Noroeste 14 Noroeste 0 -- -- 90
2019-08-02 20:00:00 21.4 9 Noroeste 19 Noroeste 0 -- -- 83
2019-08-02 19:00:00 22 6 Noroeste 19 Noroeste 0 -- -- 82
2019-08-02 18:00:00 22.3 13 Noroeste 23 Oeste 0 -- -- 78
2019-08-02 17:00:00 24.5 5 Noroeste 20 Noroeste 0 -- -- 71
2019-08-02 16:00:00 22.9 13 Noroeste 25 Oeste 0 -- -- 77
2019-08-02 15:00:00 23 12 Noroeste 24 Noroeste 0 -- -- 76
2019-08-02 14:00:00 22.3 12 Noroeste 20 Noroeste 0 -- -- 77
2019-08-02 13:00:00 21.5 10 Noroeste 19 Este 0 -- -- 78
2019-08-02 12:00:00 20.3 11 Este 22 Este 0 -- -- 75
2019-08-02 11:00:00 19.4 10 Este 19 Este 0 -- -- 78
2019-08-02 10:00:00 17.7 5 Norte 17 Sudeste 0 -- -- 91
2019-08-02 09:00:00 14.9 2 Sudeste 5 Sudoeste 0 -- -- 100
2019-08-02 08:00:00 14.3 2 Sur 7 Sudoeste 0 -- -- 100
2019-08-02 07:00:00 14.6 5 Este 8 Este 0 -- -- 99
2019-08-02 06:00:00 14.9 0 Calma 9 Este 0 -- -- 98
2019-08-02 05:00:00 15.3 3 Este 12 Este 0 -- -- 93
2019-08-02 04:00:00 16.3 7 Este 12 Sudeste 0 -- -- 87
2019-08-02 03:00:00 16 5 Este 14 Este 0 -- -- 91
2019-08-02 02:00:00 15.8 12 Este 16 Este 0 -- -- 93
2019-08-02 01:00:00 16.3 10 Este 19 Este 0 -- -- 90
2019-08-02 00:00:00 17 10 Este 22 Este 0 -- -- 91
2019-08-01 23:00:00 17.1 13 Este 24 Este 0 -- -- 94
2019-08-01 22:00:00 17 15 Nordeste 23 Nordeste 0 -- -- 96
2019-08-01 21:00:00 17.3 17 Nordeste 30 Nordeste 0 -- -- 92
2019-08-01 20:00:00 17.6 18 Este 31 Este 0 -- -- 91
2019-08-01 19:00:00 17.4 23 Nordeste 31 Nordeste 0 -- -- 94
2019-08-01 18:00:00 18.9 14 Nordeste 35 Este 0 -- -- 88
2019-08-01 17:00:00 19.2 19 Este 37 Este 0 -- -- 85
2019-08-01 16:00:00 20.1 23 Este 39 Este 0 -- -- 80
2019-08-01 15:00:00 20.1 20 Este 33 Este 0 -- -- 80
2019-08-01 14:00:00 20.1 19 Este 32 Este 0 -- -- 79
2019-08-01 13:00:00 20.6 13 Nordeste 27 Nordeste 0 -- -- 76
2019-08-01 12:00:00 19.5 19 Este 30 Este 0 -- -- 75
2019-08-01 11:00:00 19.4 18 Nordeste 28 Nordeste 0 -- -- 73
2019-08-01 10:00:00 18 14 Nordeste 27 Este 0 -- -- 79
2019-08-01 09:00:00 16.7 13 Este 28 Este 0 -- -- 83
2019-08-01 08:00:00 15.4 18 Este 28 Este 0 -- -- 90
2019-08-01 07:00:00 15.7 17 Nordeste 27 Este 0 -- -- 88
2019-08-01 06:00:00 15.7 12 Nordeste 26 Nordeste 0 -- -- 90
2019-08-01 05:00:00 15.7 12 Nordeste 21 Nordeste 0 -- -- 92
2019-08-01 04:00:00 15.8 9 Nordeste 22 Este 0 -- -- 91
2019-08-01 03:00:00 15.7 13 Nordeste 29 Nordeste 0 -- -- 90
2019-08-01 02:00:00 15.6 12 Nordeste 26 Nordeste 0 -- -- 90
2019-08-01 01:00:00 15.7 12 Nordeste 22 Nordeste 0 -- -- 89
2019-08-01 00:00:00 15.7 14 Este 21 Este 0 -- -- 91
2019-07-31 23:00:00 15.8 14 Este 24 Nordeste 0 -- -- 91
2019-07-31 22:00:00 15.7 17 Nordeste 26 Nordeste 0 -- -- 91
2019-07-31 21:00:00 16.4 16 Este 27 Este 0 -- -- 86
2019-07-31 20:00:00 17 18 Este 31 Este 0 -- -- 86
2019-07-31 19:00:00 17.4 17 Nordeste 27 Nordeste 0 -- -- 85
2019-07-31 18:00:00 18.2 13 Este 25 Nordeste 0 -- -- 80
2019-07-31 17:00:00 17.8 15 Nordeste 24 Nordeste 0 -- -- 83
2019-07-31 16:00:00 17.6 16 Nordeste 33 Este 0 -- -- 82
2019-07-31 15:00:00 18.4 13 Nordeste 26 Nordeste 0 -- -- 79
2019-07-31 14:00:00 19.4 13 Nordeste 27 Nordeste 0 -- -- 71
2019-07-31 13:00:00 20.1 11 Este 24 Este 0 -- -- 66
2019-07-31 12:00:00 17.9 8 Nordeste 21 Nordeste 0 -- -- 73
2019-07-31 11:00:00 16.1 5 Noroeste 10 Noroeste 0 -- -- 82
2019-07-31 10:00:00 15 4 Noroeste 12 Nordeste 0 -- -- 82
2019-07-31 09:00:00 14.6 0 Calma 9 Este 0 -- -- 84
2019-07-31 08:00:00 11.9 3 Nordeste 8 Este 0 -- -- 89
2019-07-31 07:00:00 11.7 0 Calma 4 Norte 0 -- -- 91
2019-07-31 06:00:00 12.3 4 Nordeste 8 Sudoeste 0 -- -- 88
2019-07-31 05:00:00 12.3 4 Sudeste 8 Nordeste 0 -- -- 87
2019-07-31 04:00:00 12.7 0 Calma 9 Este 0 -- -- 82
2019-07-31 03:00:00 12.7 5 Este 10 Nordeste 0 -- -- 81
2019-07-31 02:00:00 12.8 8 Este 15 Este 0 -- -- 89
2019-07-31 01:00:00 12.9 9 Nordeste 14 Este 0 -- -- 93
2019-07-31 00:00:00 13.1 5 Este 9 Este 0 -- -- 88
2019-07-30 23:00:00 13.4 4 Nordeste 9 Nordeste 0 -- -- 87
2019-07-30 22:00:00 14 3 Norte 12 Noroeste 0 -- -- 86
2019-07-30 21:00:00 15.1 9 Noroeste 18 Noroeste 0 -- -- 80
2019-07-30 20:00:00 15.8 14 Noroeste 23 Noroeste 0 -- -- 76
2019-07-30 19:00:00 17 15 Noroeste 28 Noroeste 0 -- -- 69
2019-07-30 18:00:00 16.3 21 Noroeste 33 Noroeste 0 -- -- 74
2019-07-30 17:00:00 16.2 22 Noroeste 35 Noroeste 0 -- -- 78
2019-07-30 16:00:00 17.7 22 Noroeste 32 Noroeste 0 -- -- 72
2019-07-30 15:00:00 16.6 17 Noroeste 29 Noroeste 0 -- -- 77
2019-07-30 14:00:00 16.2 17 Noroeste 33 Noroeste 0 -- -- 80
2019-07-30 13:00:00 16.6 16 Noroeste 25 Noroeste 0 -- -- 70
2019-07-30 12:00:00 17 10 Noroeste 19 Noroeste 0 -- -- 64
2019-07-30 11:00:00 16.4 9 Noroeste 20 Noroeste 0 -- -- 68
2019-07-30 10:00:00 15.5 6 Oeste 14 Oeste 0 -- -- 75
2019-07-30 09:00:00 15.1 5 Noroeste 16 Noroeste 0 -- -- 76
2019-07-30 08:00:00 13.3 2 Norte 13 Sudoeste 0 -- -- 82
2019-07-30 07:00:00 13.3 5 Noroeste 19 Sur 0 -- -- 80
2019-07-30 06:00:00 13.5 5 Noroeste 16 Sudoeste 0 -- -- 79
2019-07-30 05:00:00 13.4 7 Oeste 15 Sudoeste 0 -- -- 81
2019-07-30 04:00:00 13.5 6 Noroeste 15 Noroeste 0 -- -- 81
2019-07-30 03:00:00 13.7 6 Noroeste 24 Sudoeste 0 -- -- 78
2019-07-30 02:00:00 13.8 7 Noroeste 20 Sudoeste 0 -- -- 77
2019-07-30 01:00:00 13.8 3 Oeste 15 Oeste 0 -- -- 78
2019-07-30 00:00:00 14.2 4 Noroeste 19 Noroeste 0 -- -- 75
2019-07-29 23:00:00 14.9 9 Noroeste 30 Sudoeste 0 -- -- 70
2019-07-29 22:00:00 15.8 9 Oeste 36 Oeste 0 -- -- 65
2019-07-29 21:00:00 17.7 12 Oeste 35 Noroeste 0 -- -- 61
2019-07-29 20:00:00 18.2 10 Oeste 32 Noroeste 0 -- -- 61
2019-07-29 19:00:00 20.1 17 Noroeste 41 Noroeste 0 -- -- 56
2019-07-29 18:00:00 19.3 9 Oeste 42 Noroeste 0 -- -- 59
2019-07-29 17:00:00 19.9 11 Noroeste 32 Sudoeste 0 -- -- 63
2019-07-29 16:00:00 20.9 19 Noroeste 40 Noroeste 0 -- -- 56
2019-07-29 15:00:00 20.8 18 Noroeste 41 Noroeste 0 -- -- 56
2019-07-29 14:00:00 20.6 12 Sudoeste 36 Sudoeste 0 -- -- 56
2019-07-29 13:00:00 20.7 15 Sudoeste 45 Sudoeste 0 -- -- 54
2019-07-29 12:00:00 20.3 18 Sudoeste 43 Sudoeste 0 -- -- 56
2019-07-29 11:00:00 18.6 10 Oeste 40 Sudoeste 0 -- -- 67
2019-07-29 10:00:00 18 12 Oeste 37 Sudoeste 0 -- -- 67
2019-07-29 09:00:00 17.5 10 Oeste 29 Sudoeste 0 -- -- 77
2019-07-29 08:00:00 16.3 8 Noroeste 31 Sudoeste 0 -- -- 82
2019-07-29 07:00:00 16.6 8 Oeste 36 Sudoeste 0 -- -- 79
2019-07-29 06:00:00 16.5 12 Noroeste 40 Sudoeste 0 -- -- 78
2019-07-29 05:00:00 17.5 12 Oeste 42 Oeste 0 -- -- 70
2019-07-29 04:00:00 17.9 9 Oeste 21 Oeste 0 -- -- 63
2019-07-29 03:00:00 17.3 7 Sudoeste 19 Sudoeste 0 -- -- 68
2019-07-29 02:00:00 17.4 3 Sudeste 19 Sur 0 -- -- 75
2019-07-29 01:00:00 18.1 2 Oeste 13 Sudoeste 0 -- -- 81
2019-07-29 00:00:00 18.3 6 Nordeste 12 Noroeste 0 -- -- 84
2019-07-28 23:00:00 18.5 4 Nordeste 8 Noroeste 0 -- -- 84
2019-07-28 22:00:00 19.5 2 Nordeste 7 Noroeste 0 -- -- 84
2019-07-28 21:00:00 20.9 5 Noroeste 14 Noroeste 0 -- -- 80
2019-07-28 20:00:00 21.9 8 Noroeste 18 Noroeste 0 -- -- 77
2019-07-28 19:00:00 22.3 10 Noroeste 15 Noroeste 0 -- -- 74
2019-07-28 18:00:00 22.5 5 Norte 15 Noroeste 0 -- -- 71
2019-07-28 17:00:00 22.5 8 Sudeste 18 Noroeste 0 -- -- 71
2019-07-28 16:00:00 22.8 8 Noroeste 18 Noroeste 0 -- -- 69
2019-07-28 15:00:00 21.8 9 Noroeste 19 Noroeste 0 -- -- 75
2019-07-28 14:00:00 20.9 10 Noroeste 17 Oeste 0 -- -- 78
2019-07-28 13:00:00 20.6 5 Norte 14 Noroeste 0 -- -- 73
2019-07-28 12:00:00 18.7 5 Noroeste 12 Noroeste 0 -- -- 79
2019-07-28 11:00:00 17 4 Noroeste 9 Sudoeste 0 -- -- 81
2019-07-28 10:00:00 16 4 Sudoeste 8 Sudoeste 0 -- -- 82
2019-07-28 09:00:00 14.1 2 Este 4 Este 0 -- -- 88
2019-07-28 08:00:00 11.8 2 Oeste 5 Sur 0 -- -- 94
2019-07-28 07:00:00 11.6 4 Sur 5 Noroeste 0 -- -- 95
2019-07-28 06:00:00 12.1 3 Este 8 Sudeste 0 -- -- 94
2019-07-28 05:00:00 12.9 0 Calma 8 Este 0 -- -- 90
2019-07-28 04:00:00 13.1 3 Oeste 10 Nordeste 0 -- -- 90
2019-07-28 03:00:00 12.9 4 Este 13 Sur 0 -- -- 93
2019-07-28 02:00:00 13.5 4 Sudeste 6 Sudeste 0 -- -- 94
2019-07-28 01:00:00 14.1 4 Este 6 Este 0 -- -- 92
2019-07-28 00:00:00 13.6 4 Este 7 Este 0 -- -- 93
2019-07-27 23:00:00 13.7 5 Este 8 Este 0 -- -- 94
2019-07-26 12:00:00 17.8 6 Noroeste 12 Noroeste 0 -- -- 80
2019-07-26 11:00:00 17.8 4 Noroeste 11 Noroeste 0 -- -- 81
2019-07-26 10:00:00 16.5 4 Noroeste 7 Noroeste 0 -- -- 88
2019-07-26 09:00:00 16 3 Noroeste 10 Sur 0 -- -- 85
2019-07-26 08:00:00 14.4 2 Sudeste 11 Sudoeste 0 -- -- 90
2019-07-26 07:00:00 14.1 2 Sudoeste 12 Sur 0 -- -- 91
2019-07-26 06:00:00 14 5 Sudoeste 14 Oeste 0 -- -- 92
2019-07-26 05:00:00 14.8 5 Noroeste 16 Sudoeste 0 -- -- 90
2019-07-26 04:00:00 15 6 Oeste 11 Sudoeste 0 -- -- 96
2019-07-26 03:00:00 15.9 3 Sudoeste 6 Sudoeste 0 -- -- 100
2019-07-26 02:00:00 16.1 3 Este 8 Sur 0 -- -- 100
2019-07-26 01:00:00 16.2 0 Calma 7 Oeste 0 -- -- 100
2019-07-26 00:00:00 16.5 2 Sur 7 Oeste 0 -- -- 100
2019-07-25 23:00:00 16.6 4 Noroeste 16 Noroeste 0 -- -- 100
2019-07-25 22:00:00 17.7 9 Noroeste 14 Noroeste 0 -- -- 90
2019-07-25 21:00:00 17.7 5 Sudoeste 15 Sudoeste 0.2 -- -- 90
2019-07-25 20:00:00 16.9 6 Sur 15 Noroeste 4 -- -- 100
2019-07-25 19:00:00 18.2 3 Este 12 Este 0.2 -- -- 98
2019-07-25 18:00:00 17.6 3 Noroeste 15 Sudeste 0 -- -- 99
2019-07-25 17:00:00 18.5 11 Noroeste 29 Este 0 -- -- 93
2019-07-25 16:00:00 20.9 9 Este 26 Este 0 -- -- 84
2019-07-25 15:00:00 20.7 16 Noroeste 33 Noroeste 0 -- -- 89
2019-07-25 14:00:00 23 26 Noroeste 46 Noroeste 0 -- -- 75
2019-07-25 13:00:00 26.7 9 Noroeste 18 Noroeste 0 -- -- 60
2019-07-25 12:00:00 27.2 7 Sudeste 18 Sur 0 -- -- 52
2019-07-25 11:00:00 24.1 6 Sur 13 Sur 0 -- -- 62
2019-07-25 10:00:00 21.7 4 Sudeste 7 Sudeste 0 -- -- 74
2019-07-25 09:00:00 19.6 3 Sur 8 Oeste 0 -- -- 79
2019-07-25 08:00:00 19.8 2 Este 7 Este 0 -- -- 75
2019-07-25 07:00:00 19.8 2 Oeste 8 Noroeste 0 -- -- 77
2019-07-25 06:00:00 20.1 4 Sudoeste 9 Sur 0 -- -- 75
2019-07-25 05:00:00 19.6 4 Sur 12 Sur 0 -- -- 82
2019-07-25 04:00:00 21.1 5 Este 9 Este 0 -- -- 74
2019-07-25 03:00:00 20.6 2 Noroeste 11 Sudoeste 0 -- -- 84
2019-07-25 02:00:00 20.3 3 Sudoeste 9 Sudoeste 0 -- -- 90
2019-07-25 01:00:00 20 0 Calma 6 Este 0 -- -- 93
2019-07-25 00:00:00 18.5 2 Este 7 Este 0 -- -- 100
2019-07-24 23:00:00 19.1 0 Calma 8 Noroeste 0 -- -- 99
2019-07-24 22:00:00 19.8 5 Sudeste 9 Noroeste 0 -- -- 98
2019-07-24 21:00:00 21.9 8 Noroeste 14 Noroeste 0 -- -- 88
2019-07-24 20:00:00 23 10 Noroeste 17 Noroeste 0 -- -- 85
2019-07-24 19:00:00 23.4 8 Noroeste 23 Noroeste 0 -- -- 82
2019-07-24 18:00:00 24.9 13 Noroeste 20 Noroeste 0 -- -- 77
2019-07-24 17:00:00 25.9 12 Noroeste 21 Oeste 0 -- -- 77
2019-07-24 16:00:00 26.1 7 Noroeste 21 Noroeste 0 -- -- 75
2019-07-24 15:00:00 24.7 13 Noroeste 23 Noroeste 0 -- -- 80
2019-07-24 14:00:00 23.8 9 Noroeste 19 Noroeste 0 -- -- 82
2019-07-24 13:00:00 23.1 9 Noroeste 20 Noroeste 0 -- -- 83
2019-07-24 12:00:00 23.4 8 Noroeste 14 Noroeste 0 -- -- 84
2019-07-24 11:00:00 21.5 4 Noroeste 9 Noroeste 0 -- -- 87
2019-07-24 10:00:00 19.9 5 Noroeste 11 Sur 0 -- -- 91
2019-07-24 09:00:00 18.7 4 Sur 8 Sur 0 -- -- 95
2019-07-24 08:00:00 17.3 3 Nordeste 7 Sudoeste 0 -- -- 99
2019-07-24 07:00:00 16.6 3 Sudeste 9 Sur 0 -- -- 100
2019-07-24 06:00:00 16.1 3 Sudeste 12 Sudeste 0 -- -- 100
2019-07-24 05:00:00 16.4 3 Sur 13 Este 0 -- -- 100
2019-07-24 04:00:00 16.6 3 Sudeste 7 Sudeste 0 -- -- 100
2019-07-24 03:00:00 16.7 2 Sur 4 Este 0 -- -- 100
2019-07-24 02:00:00 17 3 Sudeste 5 Oeste 0 -- -- 100
2019-07-24 01:00:00 17.4 0 Calma 10 Oeste 0 -- -- 100
2019-07-24 00:00:00 17.9 5 Sur 15 Oeste 0 -- -- 100
2019-07-23 23:00:00 19.6 2 Noroeste 8 Sudeste 0 -- -- 91
2019-07-23 22:00:00 20.8 4 Este 28 Sudeste 0 -- -- 77
2019-07-23 21:00:00 19.8 3 Noroeste 16 Este 0 -- -- 96
2019-07-23 20:00:00 18.6 4 Sudeste 10 Noroeste 0 -- -- 100
2019-07-23 19:00:00 18.4 8 Noroeste 20 Noroeste 0 -- -- 100
2019-07-23 18:00:00 18.9 8 Norte 20 Noroeste 0 -- -- 100
2019-07-23 17:00:00 18.7 14 Norte 27 Noroeste 0 -- -- 100
2019-07-23 16:00:00 20.3 18 Noroeste 29 Noroeste 0 -- -- 93
2019-07-23 15:00:00 21.6 8 Noroeste 15 Noroeste 0 -- -- 91
2019-07-23 14:00:00 24.3 10 Noroeste 21 Noroeste 0 -- -- 81
2019-07-23 13:00:00 25.3 10 Noroeste 17 Noroeste 0 -- -- 80
2019-07-23 12:00:00 25.3 12 Noroeste 20 Noroeste 0 -- -- 81
2019-07-23 11:00:00 25.3 3 Noroeste 11 Oeste 0 -- -- 72
2019-07-23 10:00:00 21.9 3 Noroeste 12 Sudoeste 0 -- -- 90
2019-07-23 09:00:00 18.8 13 Este 23 Este 0 -- -- 100
2019-07-23 08:00:00 18 8 Noroeste 10 Noroeste 0 -- -- 100
2019-07-23 07:00:00 17.9 4 Este 9 Sur 0 -- -- 100
2019-07-23 06:00:00 17.9 5 Este 9 Este 0 -- -- 100
2019-07-23 05:00:00 18.1 6 Nordeste 14 Sur 0 -- -- 100
2019-07-23 04:00:00 18.3 2 Sur 8 Noroeste 0 -- -- 100
2019-07-23 03:00:00 18.4 2 Norte 7 Este 0 -- -- 100
2019-07-23 02:00:00 18.5 2 Noroeste 8 Noroeste 0 -- -- 100
2019-07-23 01:00:00 18.6 4 Norte 7 Noroeste 0 -- -- 100
2019-07-23 00:00:00 18.5 4 Noroeste 12 Noroeste 0 -- -- 100
2019-07-22 23:00:00 18.9 8 Noroeste 34 Sudeste 0 -- -- 100
2019-07-22 22:00:00 18.9 3 Oeste 8 Noroeste 0 -- -- 100
2019-07-22 21:00:00 19.6 7 Noroeste 12 Oeste 0 -- -- 99
2019-07-22 20:00:00 20.4 7 Oeste 15 Noroeste 0 -- -- 95
2019-07-22 19:00:00 21.8 7 Noroeste 22 Oeste 0 -- -- 90
2019-07-22 18:00:00 23.4 10 Noroeste 20 Noroeste 0 -- -- 84
2019-07-22 17:00:00 24.6 10 Noroeste 22 Noroeste 0 -- -- 80
2019-07-22 16:00:00 25.1 10 Noroeste 21 Noroeste 0 -- -- 79
2019-07-22 15:00:00 24.5 10 Noroeste 19 Norte 0 -- -- 77
2019-07-22 14:00:00 23.8 13 Noroeste 19 Noroeste 0 -- -- 80
2019-07-22 13:00:00 24.8 5 Nordeste 25 Este 0 -- -- 74
2019-07-22 12:00:00 22.5 14 Este 29 Este 0 -- -- 78
2019-07-22 11:00:00 21.4 18 Este 28 Este 0 -- -- 81
2019-07-22 10:00:00 19.7 16 Este 26 Este 0 -- -- 87
2019-07-22 09:00:00 18.8 19 Sudeste 32 Sudeste 0 -- -- 90
2019-07-22 08:00:00 18.5 19 Este 28 Este 0 -- -- 92
2019-07-22 07:00:00 18.4 10 Este 22 Este 0 -- -- 92
2019-07-22 06:00:00 18.3 5 Este 25 Norte 0 -- -- 94
2019-07-22 05:00:00 18 4 Nordeste 18 Este 0 -- -- 97
2019-07-22 04:00:00 18.4 8 Nordeste 20 Nordeste 0 -- -- 93
2019-07-22 03:00:00 18.2 8 Nordeste 15 Nordeste 0 -- -- 95
2019-07-22 02:00:00 18.3 3 Norte 17 Nordeste 0 -- -- 95
2019-07-22 01:00:00 18.1 5 Norte 14 Nordeste 0 -- -- 96
2019-07-22 00:00:00 18.6 8 Nordeste 19 Nordeste 0 -- -- 95
2019-07-21 23:00:00 18.6 9 Nordeste 20 Este 0 -- -- 96
2019-07-21 22:00:00 18.4 10 Nordeste 15 Nordeste 0 -- -- 99
2019-07-21 21:00:00 18.3 12 Nordeste 20 Nordeste 0 -- -- 100
2019-07-21 20:00:00 19.2 8 Nordeste 22 Nordeste 0 -- -- 94
2019-07-21 19:00:00 20.6 4 Nordeste 19 Este 0 -- -- 88
2019-07-21 18:00:00 20.5 14 Este 30 Este 0 -- -- 88
2019-07-21 17:00:00 20.7 9 Este 23 Nordeste 0 -- -- 86
2019-07-21 16:00:00 20.4 15 Nordeste 25 Nordeste 0 -- -- 87
2019-07-21 15:00:00 20.2 13 Nordeste 22 Este 0 -- -- 87
2019-07-21 14:00:00 21.8 13 Nordeste 20 Este 0 -- -- 81
2019-07-21 13:00:00 20.7 7 Este 17 Nordeste 0 -- -- 82
2019-07-21 12:00:00 18.9 12 Nordeste 21 Este 0 -- -- 93
2019-07-21 11:00:00 18.4 5 Norte 12 Nordeste 0 -- -- 95
2019-07-21 10:00:00 16.8 5 Noroeste 9 Noroeste 0 -- -- 100
2019-07-21 09:00:00 16.6 5 Noroeste 10 Este 0 -- -- 99
2019-07-21 08:00:00 16 4 Este 9 Este 0 -- -- 100
2019-07-21 07:00:00 15.7 0 Calma 5 Noroeste 0 -- -- 100
2019-07-21 06:00:00 15.8 0 Calma 6 Noroeste 0 -- -- 100
2019-07-21 05:00:00 15.9 6 Noroeste 8 Noroeste 0 -- -- 100
2019-07-21 04:00:00 16.1 2 Noroeste 13 Nordeste 0 -- -- 100
2019-07-21 03:00:00 15.9 4 Sudeste 12 Sudeste 0 -- -- 100
2019-07-21 02:00:00 16 0 Calma 5 Noroeste 0 -- -- 100
2019-07-21 01:00:00 16.3 2 Noroeste 8 Noroeste 0 -- -- 96
2019-07-21 00:00:00 16.3 4 Noroeste 5 Noroeste 0 -- -- 96
2019-07-20 23:00:00 16.5 0 Calma 4 Sur 0 -- -- 95
2019-07-20 22:00:00 16.7 2 Noroeste 8 Noroeste 0 -- -- 94
2019-07-20 21:00:00 17.1 8 Noroeste 14 Noroeste 0 -- -- 89
2019-07-20 20:00:00 17.3 7 Noroeste 17 Noroeste 0 -- -- 88
2019-07-20 19:00:00 17.8 5 Noroeste 18 Noroeste 0 -- -- 89
2019-07-20 18:00:00 17.5 13 Noroeste 17 Noroeste 0 -- -- 88
2019-07-20 17:00:00 17.2 12 Noroeste 23 Noroeste 0 -- -- 93
2019-07-20 16:00:00 17.6 14 Noroeste 27 Noroeste 0 -- -- 93
2019-07-20 15:00:00 18.4 15 Noroeste 26 Noroeste 0 -- -- 90
2019-07-20 14:00:00 20.4 21 Noroeste 35 Noroeste 0 -- -- 86
2019-07-20 13:00:00 21.6 15 Norte 31 Noroeste 0 -- -- 74
2019-07-20 12:00:00 22 13 Noroeste 20 Oeste 0 -- -- 74
2019-07-20 11:00:00 20.7 7 Noroeste 12 Noroeste 0 -- -- 79
2019-07-20 10:00:00 19.5 4 Noroeste 9 Este 0 -- -- 86
2019-07-20 09:00:00 18.4 3 Sudeste 7 Sur 0 -- -- 87
2019-07-20 08:00:00 15.8 5 Este 8 Este 0 -- -- 97
2019-07-20 07:00:00 15.2 0 Calma 9 Noroeste 0 -- -- 99
2019-07-20 06:00:00 16.8 3 Este 12 Este 0 -- -- 91
2019-07-20 05:00:00 16.8 6 Sudoeste 11 Sudoeste 0 -- -- 91
2019-07-20 04:00:00 17.4 2 Este 5 Nordeste 0 -- -- 88
2019-07-20 03:00:00 17.2 2 Sur 9 Sur 0 -- -- 88
2019-07-20 02:00:00 17.8 0 Calma 7 Sudeste 0 -- -- 86
2019-07-20 01:00:00 18.1 0 Calma 8 Sudeste 0 -- -- 87
2019-07-20 00:00:00 18 2 Sur 7 Sudeste 0 -- -- 90
2019-07-19 23:00:00 17.2 3 Este 8 Sudeste 0 -- -- 96
2019-07-19 22:00:00 18.1 0 Calma 11 Noroeste 0 -- -- 93
2019-07-19 21:00:00 20.5 7 Noroeste 14 Noroeste 0 -- -- 83
2019-07-19 20:00:00 21.4 8 Noroeste 17 Noroeste 0 -- -- 78
2019-07-19 19:00:00 22.9 8 Norte 18 Noroeste 0 -- -- 77
2019-07-19 18:00:00 22.6 10 Noroeste 19 Noroeste 0 -- -- 81
2019-07-19 17:00:00 22.4 11 Noroeste 18 Noroeste 0 -- -- 79
2019-07-19 16:00:00 22 14 Noroeste 21 Noroeste 0 -- -- 79
2019-07-19 15:00:00 20.8 16 Noroeste 23 Noroeste 0 -- -- 81
2019-07-19 14:00:00 21 11 Noroeste 22 Noroeste 0 -- -- 84
2019-07-19 13:00:00 19.6 13 Noroeste 19 Noroeste 0 -- -- 86
2019-07-19 12:00:00 19.1 6 Noroeste 13 Oeste 0 -- -- 87
2019-07-19 11:00:00 18.6 3 Noroeste 10 Sur 0 -- -- 88
2019-07-19 10:00:00 16.8 3 Noroeste 10 Noroeste 0 -- -- 97
2019-07-19 09:00:00 15.4 4 Sudoeste 10 Sur 0 -- -- 100
2019-07-19 08:00:00 14.9 3 Nordeste 7 Este 0 -- -- 100
2019-07-19 07:00:00 14.8 0 Calma 8 Este 0 -- -- 100
2019-07-19 06:00:00 15 5 Sudeste 8 Sudeste 0 -- -- 100
2019-07-19 05:00:00 15.3 4 Sudeste 7 Sudeste 0 -- -- 98
2019-07-19 04:00:00 15.4 6 Sur 11 Este 0 -- -- 98
2019-07-19 03:00:00 15.6 5 Sudeste 12 Sudeste 0 -- -- 97
2019-07-19 02:00:00 15.5 7 Sudeste 12 Sudeste 0 -- -- 98
2019-07-19 01:00:00 15.3 10 Este 15 Este 0 -- -- 99
2019-07-19 00:00:00 15.7 11 Este 14 Este 0 -- -- 97